Terminal Aerodrome Forecast
Issued by NWS

Home | Current Version | Previous Version | Text Only | Print | Product List | Glossary On
Versions: 1 2 3 4 5 6 7 8 9 10 11 12 13 14 15 16 17 18 19
930
FTUS45 KFGZ 240538
TAFGCN
TAF
KGCN 240538Z 2406/2506 VRB03KT P6SM SKC
     FM241700 26009G16KT P6SM FEW060
     FM250200 00000KT P6SM FEW200=

USA.gov is the U.S. government's official web portal to all federal, state and local government web resources and services.